Time;durP1;ratioP1;P1;durP2;ratioP2;P2;SDS_P1;SDS_P2;PMS_P1;PMS_P2;Temp;Humidity;BMP_temperature;BMP_pressure;BME280_temperature;BME280_humidity;BME280_pressure;Samples;Min_cycle;Max_cycle;Signal;HPM_P1;HPM_P2
2022/04/05 00:01:56;;;;;;;10.10;7.90;;;4.60;78.60;;;;;;5069078;28;20210;-86
2022/04/05 00:04:23;;;;;;;10.43;7.90;;;4.60;78.70;;;;;;5068642;28;20249;-87
2022/04/05 00:06:49;;;;;;;7.90;6.75;;;4.80;78.40;;;;;;5068367;28;20223;-86
2022/04/05 00:09:17;;;;;;;9.85;8.07;;;4.70;78.00;;;;;;5069008;28;20203;-87
2022/04/05 00:11:45;;;;;;;14.27;9.13;;;4.70;78.30;;;;;;5068245;28;20199;-87
2022/04/05 00:14:16;;;;;;;9.02;8.13;;;4.70;77.60;;;;;;5068790;28;20367;-87
2022/04/05 00:16:44;;;;;;;10.32;7.32;;;4.80;91.20;;;;;;5068934;28;20653;-87
2022/04/05 00:19:11;;;;;;;9.65;8.65;;;4.60;78.30;;;;;;5068416;28;20657;-88
2022/04/05 00:21:40;;;;;;;9.52;7.45;;;4.60;79.50;;;;;;5068937;28;20288;-86
2022/04/05 00:24:08;;;;;;;8.82;7.95;;;4.70;78.30;;;;;;5068880;28;20195;-87
2022/04/05 00:26:37;;;;;;;7.88;7.07;;;4.70;78.80;;;;;;5068051;28;20223;-87
2022/04/05 00:29:05;;;;;;;9.82;8.38;;;4.70;89.90;;;;;;5068100;28;20841;-87
2022/04/05 00:31:34;;;;;;;9.48;8.50;;;4.80;87.40;;;;;;5068163;28;20203;-87
2022/04/05 00:34:01;;;;;;;9.73;7.78;;;4.60;78.90;;;;;;5068522;28;20211;-88
2022/04/05 00:36:29;;;;;;;8.55;7.15;;;4.70;79.10;;;;;;5068421;28;20226;-87
2022/04/05 00:38:56;;;;;;;11.70;7.95;;;4.60;78.80;;;;;;5068124;28;20661;-87
2022/04/05 00:41:23;;;;;;;8.95;7.95;;;4.60;78.90;;;;;;5072043;28;20222;-87
2022/04/05 00:43:49;;;;;;;8.05;6.18;;;4.40;91.90;;;;;;5072265;28;20210;-87
2022/04/05 00:46:16;;;;;;;8.93;6.95;;;4.60;79.20;;;;;;5067152;28;20642;-87
2022/04/05 00:48:51;;;;;;;11.10;8.65;;;4.80;91.40;;;;;;5061617;28;20673;-87
2022/04/05 00:51:19;;;;;;;7.15;6.43;;;4.60;78.60;;;;;;5072422;28;20203;-88
2022/04/05 00:53:48;;;;;;;10.05;7.40;;;4.60;79.00;;;;;;5072356;28;20545;-88
2022/04/05 00:56:15;;;;;;;7.93;7.13;;;5.10;80.20;;;;;;5072171;28;20890;-86
2022/04/05 00:58:46;;;;;;;12.48;8.60;;;4.70;79.90;;;;;;5092667;28;20242;-86
2022/04/05 01:01:16;;;;;;;9.63;8.52;;;4.70;79.10;;;;;;5075148;28;20299;-87
2022/04/05 01:03:48;;;;;;;10.15;8.23;;;4.70;78.90;;;;;;5077523;28;20665;-86
2022/04/05 01:06:18;;;;;;;9.85;7.97;;;4.60;87.90;;;;;;5070850;28;20215;-89
2022/04/05 01:08:47;;;;;;;8.25;7.40;;;4.70;78.50;;;;;;5072002;28;20214;-87
2022/04/05 01:11:15;;;;;;;8.98;7.97;;;4.70;79.20;;;;;;5071753;28;20195;-88
2022/04/05 01:13:44;;;;;;;8.27;7.53;;;4.70;79.50;;;;;;5071439;28;20222;-86
2022/04/05 01:16:11;;;;;;;8.32;7.35;;;4.70;79.10;;;;;;5072055;28;20199;-87
2022/04/05 01:18:39;;;;;;;9.98;7.05;;;4.70;78.80;;;;;;5071739;28;20199;-87
2022/04/05 01:21:07;;;;;;;8.98;7.75;;;4.70;78.80;;;;;;5071229;28;20525;-88
2022/04/05 01:23:37;;;;;;;7.93;6.30;;;4.60;89.00;;;;;;5071327;28;20195;-87
2022/04/05 01:26:05;;;;;;;9.38;8.02;;;4.70;79.00;;;;;;5070457;28;20907;-87
2022/04/05 01:28:33;;;;;;;10.95;7.85;;;;;;;;;;5071121;28;20207;-88
2022/04/05 01:31:02;;;;;;;9.25;7.28;;;4.70;79.90;;;;;;5070771;28;20207;-87
2022/04/05 01:33:30;;;;;;;8.63;7.75;;;4.70;81.50;;;;;;5070851;28;20207;-88
2022/04/05 01:35:57;;;;;;;8.38;6.97;;;4.60;82.30;;;;;;5070718;28;20252;-87
2022/04/05 01:38:25;;;;;;;8.98;8.10;;;4.40;94.40;;;;;;5070934;28;20203;-87
2022/04/05 01:40:53;;;;;;;10.20;7.75;;;4.50;84.50;;;;;;5062309;28;20220;-88
2022/04/05 01:43:22;;;;;;;10.07;7.50;;;4.50;84.30;;;;;;5071483;28;20214;-87
2022/04/05 01:45:48;;;;;;;10.88;8.85;;;4.60;85.30;;;;;;5069970;28;20195;-88
2022/04/05 01:48:16;;;;;;;8.43;7.45;;;4.60;83.50;;;;;;5051955;28;20200;-87
2022/04/05 01:50:44;;;;;;;9.15;6.82;;;4.70;83.80;;;;;;5070894;28;20219;-88
2022/04/05 01:53:11;;;;;;;9.05;7.85;;;4.60;83.50;;;;;;5071306;28;20202;-88
2022/04/05 01:55:38;;;;;;;10.50;7.80;;;4.50;83.00;;;;;;5071693;28;20199;-88
2022/04/05 01:58:05;;;;;;;8.45;7.43;;;4.60;83.90;;;;;;5070978;28;20265;-87
2022/04/05 02:00:33;;;;;;;8.05;7.25;;;4.60;82.90;;;;;;5070972;28;20328;-87
2022/04/05 02:03:00;;;;;;;8.90;7.20;;;4.80;82.70;;;;;;5073413;28;20262;-88
2022/04/05 02:05:27;;;;;;;10.95;8.75;;;4.80;88.10;;;;;;5074588;28;20199;-87
2022/04/05 02:07:54;;;;;;;9.18;8.25;;;4.60;82.40;;;;;;5071477;28;20219;-88
2022/04/05 02:10:21;;;;;;;10.45;7.57;;;4.60;82.50;;;;;;5070898;28;20235;-87
2022/04/05 02:12:48;;;;;;;14.15;7.95;;;4.60;83.20;;;;;;5070481;28;20207;-87
2022/04/05 02:15:15;;;;;;;10.55;8.63;;;4.60;82.50;;;;;;5069786;28;20265;-90
2022/04/05 02:17:43;;;;;;;10.60;8.25;;;4.60;83.90;;;;;;5071014;28;20288;-88
2022/04/05 02:20:13;;;;;;;9.23;8.30;;;4.70;83.30;;;;;;5070612;28;20195;-88
2022/04/05 02:22:40;;;;;;;8.70;7.60;;;4.70;83.80;;;;;;5071218;28;20240;-88
2022/04/05 02:25:08;;;;;;;9.70;7.35;;;4.70;83.80;;;;;;5070802;28;20299;-86
2022/04/05 02:27:35;;;;;;;8.48;7.57;;;4.60;84.60;;;;;;5071056;28;20243;-87
2022/04/05 02:30:02;;;;;;;9.43;7.32;;;4.50;92.50;;;;;;5069863;28;20272;-87
2022/04/05 02:32:28;;;;;;;8.95;7.72;;;4.60;83.50;;;;;;5070691;28;20562;-88
2022/04/05 02:34:57;;;;;;;7.78;6.93;;;4.60;83.50;;;;;;5069437;28;20203;-86
2022/04/05 02:37:24;;;;;;;7.63;6.82;;;4.60;84.10;;;;;;5070371;28;20199;-87
2022/04/05 02:39:51;;;;;;;8.00;6.55;;;4.70;83.50;;;;;;5068074;28;20288;-87
2022/04/05 02:42:17;;;;;;;8.07;6.82;;;4.70;83.00;;;;;;5064106;28;20658;-87
2022/04/05 02:44:44;;;;;;;8.25;7.43;;;4.70;83.10;;;;;;5070588;28;20191;-87
2022/04/05 02:47:12;;;;;;;9.82;8.00;;;4.60;84.00;;;;;;5070388;28;20250;-87
2022/04/05 02:49:39;;;;;;;8.05;7.30;;;4.70;84.10;;;;;;5069861;28;20192;-88
2022/04/05 02:52:08;;;;;;;8.10;7.30;;;4.60;83.30;;;;;;5070594;28;20195;-89
2022/04/05 02:54:35;;;;;;;10.60;8.88;;;4.80;89.30;;;;;;5069607;28;20653;-88
2022/04/05 02:57:02;;;;;;;10.27;7.85;;;4.70;83.10;;;;;;5069678;28;20654;-88
2022/04/05 02:59:30;;;;;;;7.93;6.43;;;4.60;82.70;;;;;;5069891;28;20230;-88
2022/04/05 03:01:57;;;;;;;8.73;7.85;;;4.80;83.70;;;;;;5058666;28;20249;-87
2022/04/05 03:04:24;;;;;;;7.28;6.55;;;4.70;83.40;;;;;;5067843;28;20286;-88
2022/04/05 03:06:51;;;;;;;8.50;7.28;;;5.00;85.90;;;;;;5069834;28;20251;-88
2022/04/05 03:09:21;;;;;;;9.40;8.13;;;4.70;84.30;;;;;;5070090;28;20282;-87
2022/04/05 03:11:47;;;;;;;10.32;8.60;;;4.70;84.70;;;;;;5069903;28;20199;-87
2022/04/05 03:14:14;;;;;;;8.98;6.70;;;4.70;83.70;;;;;;5069508;28;20276;-87
2022/04/05 03:16:41;;;;;;;9.02;8.05;;;4.70;84.40;;;;;;5069556;28;20329;-86
2022/04/05 03:19:08;;;;;;;7.82;7.00;;;4.60;84.00;;;;;;5069872;28;20295;-88
2022/04/05 03:21:35;;;;;;;9.43;8.13;;;4.60;84.80;;;;;;5069334;28;20657;-87
2022/04/05 03:24:02;;;;;;;11.02;8.43;;;4.60;84.90;;;;;;5069730;28;20192;-87
2022/04/05 03:26:31;;;;;;;10.07;8.98;;;4.60;85.30;;;;;;5069514;28;20311;-88
2022/04/05 03:28:58;;;;;;;10.13;8.20;;;5.90;87.20;;;;;;5069571;28;20203;-87
2022/04/05 03:31:25;;;;;;;8.82;8.00;;;4.60;84.20;;;;;;5070357;28;20207;-87
2022/04/05 03:33:52;;;;;;;9.52;7.18;;;4.50;93.70;;;;;;5069706;28;20231;-88
2022/04/05 03:36:19;;;;;;;9.35;7.72;;;4.70;85.20;;;;;;5069508;28;20203;-87
2022/04/05 03:38:46;;;;;;;8.45;7.65;;;4.70;94.40;;;;;;5070010;28;20210;-87
2022/04/05 03:41:13;;;;;;;9.20;7.20;;;4.60;85.10;;;;;;5063384;28;20277;-88
2022/04/05 03:43:41;;;;;;;9.18;7.68;;;4.70;84.50;;;;;;5070002;28;20249;-87
2022/04/05 03:46:08;;;;;;;9.27;8.02;;;4.70;85.10;;;;;;5069625;28;20191;-87
2022/04/05 03:48:35;;;;;;;8.23;7.10;;;4.70;86.10;;;;;;5069891;28;20219;-87
2022/04/05 03:51:08;;;;;;;8.90;7.22;;;4.80;86.90;;;;;;5069630;28;20248;-88
2022/04/05 03:53:35;;;;;;;9.35;7.88;;;4.80;86.40;;;;;;5069858;28;20565;-88
2022/04/05 03:56:02;;;;;;;11.65;7.70;;;4.80;85.90;;;;;;5069208;28;20238;-88
2022/04/05 03:58:29;;;;;;;11.18;8.32;;;4.80;84.20;;;;;;5069497;28;20229;-87
2022/04/05 04:00:57;;;;;;;7.88;7.18;;;5.10;93.50;;;;;;5069303;28;20222;-88
2022/04/05 04:03:24;;;;;;;10.65;7.97;;;4.80;84.50;;;;;;5057129;28;20287;-87
2022/04/05 04:05:51;;;;;;;8.30;6.90;;;4.80;83.90;;;;;;5061969;28;20274;-87
2022/04/05 04:08:18;;;;;;;12.75;7.90;;;4.70;93.40;;;;;;5069333;28;20324;-88
2022/04/05 04:10:47;;;;;;;7.75;6.95;;;4.80;84.00;;;;;;5069388;28;20203;-87
2022/04/05 04:13:14;;;;;;;10.85;7.40;;;4.90;83.20;;;;;;5068899;28;20223;-88
2022/04/05 04:15:41;;;;;;;8.02;7.22;;;4.90;83.30;;;;;;5068338;28;20235;-87
2022/04/05 04:18:09;;;;;;;8.88;7.97;;;4.90;83.40;;;;;;5069096;28;20198;-87
2022/04/05 04:20:38;;;;;;;7.30;6.60;;;4.90;94.00;;;;;;5068969;28;20293;-87
2022/04/05 04:23:05;;;;;;;7.93;7.13;;;4.90;83.80;;;;;;5069582;28;20195;-87
2022/04/05 04:25:33;;;;;;;9.82;8.10;;;4.90;85.60;;;;;;5069099;28;20704;-87
2022/04/05 04:28:00;;;;;;;8.90;8.02;;;4.90;86.10;;;;;;5069996;28;20515;-88
2022/04/05 04:30:27;;;;;;;8.95;7.78;;;4.80;87.10;;;;;;5070353;28;20642;-87
2022/04/05 04:32:55;;;;;;;11.40;8.20;;;4.20;95.50;;;;;;5068929;28;20203;-88
2022/04/05 04:35:23;;;;;;;8.93;8.13;;;4.70;90.10;;;;;;5068719;28;20710;-88
2022/04/05 04:37:50;;;;;;;8.35;7.47;;;4.70;91.10;;;;;;5069084;28;20199;-87
2022/04/05 04:40:17;;;;;;;8.57;7.35;;;4.80;91.60;;;;;;5070493;28;20233;-87
2022/04/05 04:42:45;;;;;;;9.82;8.70;;;4.70;92.10;;;;;;5071105;28;20214;-88
2022/04/05 04:45:13;;;;;;;9.88;8.40;;;4.60;92.60;;;;;;5070383;28;20202;-87
2022/04/05 04:47:40;;;;;;;7.95;6.90;;;5.00;92.60;;;;;;5070438;28;20219;-87
2022/04/05 04:50:10;;;;;;;9.77;7.82;;;4.50;93.00;;;;;;5070695;28;20282;-88
2022/04/05 04:52:39;;;;;;;9.07;7.38;;;4.40;93.60;;;;;;5071091;28;20203;-87
2022/04/05 04:55:07;;;;;;;10.38;7.88;;;4.40;93.80;;;;;;5070177;28;20683;-87
2022/04/05 04:57:34;;;;;;;15.43;8.88;;;4.40;93.90;;;;;;5071374;28;20286;-88
2022/04/05 05:00:01;;;;;;;10.00;8.75;;;4.40;94.20;;;;;;5070265;28;20215;-87
2022/04/05 05:02:28;;;;;;;11.38;8.52;;;4.40;93.90;;;;;;5070433;28;20199;-87
2022/04/05 05:04:55;;;;;;;10.05;8.98;;;4.40;94.20;;;;;;5071291;28;20244;-88
2022/04/05 05:07:22;;;;;;;10.30;8.15;;;4.30;93.90;;;;;;5069734;28;20276;-87
2022/04/05 05:09:50;;;;;;;11.35;8.27;;;4.40;94.80;;;;;;5068466;28;20204;-87
2022/04/05 05:12:22;;;;;;;10.82;9.23;;;4.40;95.10;;;;;;5068118;28;20261;-87
2022/04/05 05:14:49;;;;;;;9.18;8.27;;;4.40;95.20;;;;;;5068034;28;20226;-87
2022/04/05 05:17:16;;;;;;;10.80;9.73;;;4.40;94.60;;;;;;5064052;28;20227;-86
2022/04/05 05:19:43;;;;;;;10.27;9.23;;;4.40;94.20;;;;;;5061358;28;20196;-87
2022/04/05 05:22:10;;;;;;;8.93;8.02;;;4.40;95.00;;;;;;5066793;28;20200;-86
2022/04/05 05:24:38;;;;;;;10.75;8.32;;;4.30;95.20;;;;;;5069170;28;20204;-87
2022/04/05 05:27:07;;;;;;;12.65;9.07;;;4.30;94.30;;;;;;5067963;28;20247;-88
2022/04/05 05:29:34;;;;;;;10.68;8.32;;;4.70;95.90;;;;;;5068470;28;20199;-86
2022/04/05 05:32:01;;;;;;;12.45;9.07;;;4.30;94.20;;;;;;5072086;28;20257;-86
2022/04/05 05:34:28;;;;;;;10.88;8.00;;;4.30;94.80;;;;;;5071542;28;20211;-86
2022/04/05 05:36:55;;;;;;;8.93;8.00;;;4.30;94.20;;;;;;5067567;28;20366;-85
2022/04/05 05:39:21;;;;;;;9.93;8.52;;;4.30;96.80;;;;;;5057169;28;20928;-85
2022/04/05 05:41:50;;;;;;;10.00;8.00;;;4.40;94.60;;;;;;5071014;28;20199;-86
2022/04/05 05:44:19;;;;;;;8.52;7.68;;;4.30;95.10;;;;;;5070727;28;20265;-84
2022/04/05 05:46:46;;;;;;;8.75;7.30;;;4.40;94.70;;;;;;5062606;28;20286;-86
2022/04/05 05:49:13;;;;;;;10.48;8.07;;;4.30;94.30;;;;;;5058350;28;20955;-85
2022/04/05 05:51:39;;;;;;;9.35;8.38;;;4.30;94.30;;;;;;5071729;28;20252;-85
2022/04/05 05:54:07;;;;;;;8.98;7.82;;;4.30;95.30;;;;;;5062285;28;20192;-86
2022/04/05 05:56:34;;;;;;;10.10;7.38;;;4.40;95.00;;;;;;5069285;28;20210;-88
2022/04/05 05:59:01;;;;;;;8.82;7.97;;;4.40;95.40;;;;;;5066077;28;20219;-88
2022/04/05 06:01:29;;;;;;;8.65;7.78;;;4.50;99.90;;;;;;5065193;28;20238;-85
2022/04/05 06:03:56;;;;;;;9.57;7.80;;;4.90;96.70;;;;;;5065771;28;20227;-86
2022/04/05 06:06:23;;;;;;;8.65;7.50;;;4.30;96.40;;;;;;5062887;28;20216;-85
2022/04/05 06:08:50;;;;;;;10.10;8.32;;;4.20;99.20;;;;;;5070852;28;20628;-86
2022/04/05 06:11:17;;;;;;;8.80;7.05;;;4.40;96.80;;;;;;5071083;28;20305;-86
2022/04/05 06:13:44;;;;;;;11.02;8.38;;;4.40;97.10;;;;;;5071638;28;20257;-86
2022/04/05 06:16:11;;;;;;;12.00;8.60;;;5.20;97.80;;;;;;5072052;28;20207;-86
2022/04/05 06:18:39;;;;;;;9.55;8.60;;;4.40;97.50;;;;;;5072045;28;20558;-86
2022/04/05 06:21:06;;;;;;;10.30;8.35;;;4.40;97.30;;;;;;5072205;28;20195;-85
2022/04/05 06:23:33;;;;;;;10.35;7.50;;;4.30;97.60;;;;;;5072158;28;20219;-86
2022/04/05 06:26:00;;;;;;;11.68;9.05;;;4.40;97.50;;;;;;5072137;28;20202;-86
2022/04/05 06:28:27;;;;;;;9.65;8.27;;;4.30;97.70;;;;;;5071606;28;20207;-86
2022/04/05 06:30:54;;;;;;;10.50;8.10;;;4.30;98.00;;;;;;5071496;28;20571;-86
2022/04/05 06:33:22;;;;;;;8.38;7.53;;;4.30;97.80;;;;;;5071100;28;20254;-86
2022/04/05 06:35:52;;;;;;;9.73;8.68;;;4.30;97.50;;;;;;5072116;28;20209;-86
2022/04/05 06:38:20;;;;;;;9.65;8.65;;;4.40;98.00;;;;;;5071148;28;20214;-86
2022/04/05 06:40:47;;;;;;;10.25;9.15;;;4.50;99.90;;;;;;5063335;28;20227;-86
2022/04/05 06:43:16;;;;;;;13.25;8.40;;;4.30;97.90;;;;;;5071918;28;20234;-86
2022/04/05 06:45:44;;;;;;;11.02;8.35;;;4.40;98.40;;;;;;5071201;28;20679;-86
2022/04/05 06:48:11;;;;;;;8.75;7.85;;;4.40;98.20;;;;;;5071687;28;20694;-85
2022/04/05 06:51:02;;;;;;;9.00;8.10;;;4.50;98.20;;;;;;5070946;28;20223;-87
2022/04/05 06:53:30;;;;;;;10.65;8.77;;;4.50;98.00;;;;;;5071087;28;20227;-86
2022/04/05 06:55:57;;;;;;;10.38;7.85;;;4.50;98.60;;;;;;5070990;28;20203;-87
2022/04/05 06:58:26;;;;;;;9.30;7.88;;;4.40;97.90;;;;;;5071671;28;20744;-86
2022/04/05 07:00:53;;;;;;;10.80;8.23;;;4.60;98.40;;;;;;5070006;28;20277;-85
2022/04/05 07:03:20;;;;;;;8.88;7.00;;;4.60;97.90;;;;;;5070440;28;20206;-86
2022/04/05 07:05:48;;;;;;;10.60;7.20;;;4.70;98.10;;;;;;5065828;28;20715;-86
2022/04/05 07:08:16;;;;;;;10.00;7.55;;;4.60;97.90;;;;;;5070476;28;20215;-85
2022/04/05 07:10:43;;;;;;;10.77;8.40;;;4.70;97.80;;;;;;5069605;28;20196;-86
2022/04/05 07:13:10;;;;;;;9.32;8.10;;;4.70;97.60;;;;;;5071480;28;20598;-86
2022/04/05 07:15:37;;;;;;;10.10;7.97;;;4.80;97.50;;;;;;5103309;28;20741;-85
2022/04/05 07:18:04;;;;;;;7.45;6.75;;;4.90;97.60;;;;;;5071338;28;20282;-85
2022/04/05 07:20:31;;;;;;;10.60;7.70;;;4.90;97.80;;;;;;5071150;28;20225;-86
2022/04/05 07:22:58;;;;;;;8.82;7.82;;;4.80;97.60;;;;;;5070823;28;20207;-86
2022/04/05 07:25:27;;;;;;;7.97;7.07;;;5.00;97.90;;;;;;5071183;28;20939;-86
2022/04/05 07:27:54;;;;;;;7.72;7.13;;;4.90;97.40;;;;;;5071360;28;20219;-86
2022/04/05 07:30:21;;;;;;;10.00;7.60;;;5.10;97.60;;;;;;5071685;28;20203;-86
2022/04/05 07:32:49;;;;;;;11.38;8.20;;;5.00;97.10;;;;;;5071615;28;20230;-86
2022/04/05 07:35:18;;;;;;;17.95;7.43;;;5.10;96.80;;;;;;5071409;28;20564;-85
2022/04/05 07:37:45;;;;;;;10.93;8.93;;;5.00;96.70;;;;;;5071579;28;20268;-86
2022/04/05 07:40:13;;;;;;;10.75;7.63;;;5.10;96.20;;;;;;5066792;28;20652;-86
2022/04/05 07:42:44;;;;;;;10.93;8.98;;;5.10;96.40;;;;;;5067386;28;20229;-85
2022/04/05 07:45:12;;;;;;;7.22;6.35;;;5.20;96.80;;;;;;5061410;28;20245;-86
2022/04/05 07:47:40;;;;;;;6.80;6.15;;;5.30;96.80;;;;;;5069265;28;20752;-86
2022/04/05 07:50:09;;;;;;;9.80;7.55;;;5.40;96.10;;;;;;5071406;28;20195;-86
2022/04/05 07:52:36;;;;;;;8.75;7.13;;;5.50;96.70;;;;;;5070447;28;20594;-85
2022/04/05 07:55:04;;;;;;;7.95;6.80;;;5.70;99.90;;;;;;5071127;28;20200;-86
2022/04/05 07:57:30;;;;;;;7.47;6.78;;;5.70;97.80;;;;;;5071251;28;20203;-85
2022/04/05 07:59:59;;;;;;;8.93;8.02;;;5.70;95.80;;;;;;5071575;28;20653;-86
2022/04/05 08:02:26;;;;;;;8.13;7.32;;;5.80;96.10;;;;;;5070982;28;20263;-86
2022/04/05 08:04:52;;;;;;;9.68;6.72;;;5.80;95.90;;;;;;5064474;28;20206;-85
2022/04/05 08:07:19;;;;;;;8.40;7.30;;;5.90;96.00;;;;;;5072246;28;20210;-85
2022/04/05 08:09:46;;;;;;;9.93;6.40;;;5.90;96.60;;;;;;5069196;28;20302;-85
2022/04/05 08:12:13;;;;;;;7.53;6.45;;;6.00;95.90;;;;;;5068183;28;20191;-85
2022/04/05 08:14:40;;;;;;;7.57;6.82;;;6.00;95.90;;;;;;5068586;28;20230;-85
2022/04/05 08:17:09;;;;;;;7.60;6.65;;;6.10;98.20;;;;;;5067791;28;20603;-85
2022/04/05 08:19:36;;;;;;;12.30;6.97;;;6.10;95.90;;;;;;5068619;28;20550;-86
2022/04/05 08:22:03;;;;;;;8.48;7.05;;;6.10;96.00;;;;;;5069616;28;20248;-86
2022/04/05 08:24:30;;;;;;;7.28;6.38;;;6.20;96.20;;;;;;5069151;28;20203;-86
2022/04/05 08:26:57;;;;;;;8.52;7.70;;;6.30;96.20;;;;;;5069120;28;20199;-86
2022/04/05 08:29:24;;;;;;;7.65;6.15;;;6.30;95.90;;;;;;5069234;28;20219;-86
2022/04/05 08:31:51;;;;;;;8.32;5.80;;;5.90;99.90;;;;;;5068881;28;20268;-86
2022/04/05 08:34:20;;;;;;;6.88;6.20;;;6.10;99.90;;;;;;5068844;28;20211;-86
2022/04/05 08:36:47;;;;;;;8.10;7.30;;;6.20;96.60;;;;;;5068764;28;20199;-85
2022/04/05 08:39:14;;;;;;;7.88;6.80;;;6.20;96.20;;;;;;5068666;28;20716;-86
2022/04/05 08:41:43;;;;;;;7.32;6.72;;;6.30;95.80;;;;;;5068351;28;20203;-86
2022/04/05 08:44:11;;;;;;;8.13;6.70;;;6.30;96.40;;;;;;5068823;28;20215;-86
2022/04/05 08:46:41;;;;;;;8.75;7.82;;;6.30;96.70;;;;;;5060823;28;20253;-86
2022/04/05 08:49:08;;;;;;;8.60;6.25;;;6.30;97.30;;;;;;5055197;28;20219;-86
2022/04/05 08:51:37;;;;;;;8.27;7.38;;;6.30;97.50;;;;;;5055855;28;20195;-86
2022/04/05 08:54:04;;;;;;;7.22;6.10;;;6.40;97.10;;;;;;5068670;28;20983;-86
2022/04/05 08:56:31;;;;;;;9.20;6.53;;;6.50;97.20;;;;;;5068967;28;20799;-86
2022/04/05 08:58:58;;;;;;;8.52;6.38;;;6.50;97.30;;;;;;5068425;28;20223;-86
2022/04/05 09:01:29;;;;;;;6.30;5.50;;;6.50;97.70;;;;;;5071011;28;20308;-86
2022/04/05 09:03:56;;;;;;;6.55;5.85;;;6.60;97.30;;;;;;5071855;28;20214;-86
2022/04/05 09:06:28;;;;;;;7.10;6.00;;;6.70;96.70;;;;;;5072276;28;20203;-84
2022/04/05 09:09:09;;;;;;;6.97;6.28;;;6.80;96.80;;;;;;5072380;28;20239;-86
2022/04/05 09:11:36;;;;;;;7.22;6.45;;;6.90;96.20;;;;;;5058741;28;20226;-84
2022/04/05 09:14:05;;;;;;;6.30;5.45;;;7.10;96.50;;;;;;5072250;28;20214;-84
2022/04/05 09:16:33;;;;;;;6.35;5.63;;;7.20;96.70;;;;;;5072232;28;20655;-84
2022/04/05 09:19:01;;;;;;;10.35;6.80;;;7.30;96.20;;;;;;5071194;28;20222;-85
2022/04/05 09:21:49;;;;;;;7.38;5.95;;;7.30;96.10;;;;;;5071029;28;20199;-84
2022/04/05 09:24:18;;;;;;;7.00;6.30;;;7.20;95.90;;;;;;5071336;28;20868;-85
2022/04/05 09:26:46;;;;;;;6.20;5.60;;;7.20;95.70;;;;;;5071672;28;20203;-84
2022/04/05 09:29:14;;;;;;;6.93;5.53;;;7.10;95.20;;;;;;5071851;28;20223;-85
2022/04/05 09:31:47;;;;;;;6.82;5.65;;;7.20;95.30;;;;;;5071063;28;20291;-84
2022/04/05 09:34:16;;;;;;;7.10;5.95;;;7.20;95.30;;;;;;5070776;28;20227;-85
2022/04/05 09:36:46;;;;;;;6.30;5.70;;;7.10;96.40;;;;;;5071251;28;20211;-84
2022/04/05 09:39:18;;;;;;;7.30;5.70;;;7.20;96.20;;;;;;5071604;28;20253;-85
2022/04/05 09:41:46;;;;;;;6.32;5.63;;;7.10;96.50;;;;;;5070991;28;20272;-85
2022/04/05 09:44:13;;;;;;;6.70;5.70;;;7.20;96.00;;;;;;5071053;28;20252;-85
2022/04/05 09:46:42;;;;;;;5.38;4.88;;;7.20;95.90;;;;;;5071431;28;20713;-84
2022/04/05 09:49:12;;;;;;;6.43;5.82;;;7.20;96.60;;;;;;5070266;28;20238;-85
2022/04/05 09:51:44;;;;;;;5.88;4.95;;;7.20;97.10;;;;;;5069930;28;20201;-86
2022/04/05 09:54:28;;;;;;;6.50;5.43;;;7.20;97.00;;;;;;5070372;28;20201;-85
2022/04/05 09:57:06;;;;;;;6.47;5.70;;;7.20;97.30;;;;;;5077104;27;20208;-85
2022/04/05 09:59:41;;;;;;;6.15;5.25;;;7.20;96.90;;;;;;5070512;28;20179;-85
2022/04/05 10:02:10;;;;;;;5.50;5.07;;;7.20;97.00;;;;;;5071050;28;20199;-85
2022/04/05 10:05:01;;;;;;;7.13;6.00;;;7.30;97.40;;;;;;5059768;28;20284;-85
2022/04/05 10:07:29;;;;;;;5.93;5.25;;;7.30;97.10;;;;;;5051472;28;20247;-85
2022/04/05 10:09:59;;;;;;;8.00;5.40;;;7.30;97.50;;;;;;5058927;28;20303;-85
2022/04/05 10:12:27;;;;;;;7.35;5.70;;;7.30;97.40;;;;;;5069795;28;20203;-85
2022/04/05 10:14:54;;;;;;;7.60;5.80;;;7.40;97.90;;;;;;5072354;28;20940;-85
2022/04/05 10:17:23;;;;;;;7.93;6.43;;;7.40;97.50;;;;;;5104399;28;20207;-85
2022/04/05 10:19:50;;;;;;;6.47;5.88;;;7.50;97.40;;;;;;5072047;28;20194;-85
2022/04/05 10:22:19;;;;;;;5.00;4.53;;;7.70;99.90;;;;;;5071871;28;20266;-86
2022/04/05 10:24:49;;;;;;;7.18;5.15;;;7.40;97.50;;;;;;5071693;28;20227;-85
2022/04/05 10:27:18;;;;;;;6.40;5.82;;;7.60;98.20;;;;;;5071579;28;20218;-86
2022/04/05 10:29:46;;;;;;;8.63;5.05;;;7.70;98.30;;;;;;5071747;28;20219;-86
2022/04/05 10:32:22;;;;;;;5.68;4.97;;;7.70;98.70;;;;;;5071763;28;20566;-85
2022/04/05 10:34:56;;;;;;;6.03;5.53;;;7.60;98.50;;;;;;5070739;28;20677;-85
2022/04/05 10:37:31;;;;;;;8.40;5.85;;;7.70;99.90;;;;;;5070891;28;20200;-85
2022/04/05 10:40:17;;;;;;;5.88;4.47;;;7.60;99.90;;;;;;5067910;28;20203;-84
2022/04/05 10:42:47;;;;;;;7.22;5.95;;;7.60;99.90;;;;;;5057182;28;20236;-84
2022/04/05 10:45:16;;;;;;;11.18;6.18;;;7.70;99.90;;;;;;5062003;28;20204;-84
2022/04/05 10:48:11;;;;;;;6.25;5.28;;;7.60;99.90;;;;;;5063283;28;20215;-84
2022/04/05 10:50:38;;;;;;;7.28;5.65;;;7.70;99.90;;;;;;5070673;28;20715;-84
2022/04/05 10:53:14;;;;;;;7.22;6.10;;;7.80;99.90;;;;;;5070154;28;20203;-84
2022/04/05 10:56:14;;;;;;;6.30;5.70;;;7.80;99.90;;;;;;5070745;28;20265;-83
2022/04/05 10:59:27;;;;;;;5.70;5.20;;;7.80;99.90;;;;;;5050225;28;20721;-83
2022/04/05 11:01:54;;;;;;;9.88;5.25;;;7.80;99.90;;;;;;5049524;28;20262;-83
2022/04/05 11:04:35;;;;;;;5.18;4.47;;;7.90;99.90;;;;;;5068006;28;20232;-83
2022/04/05 11:07:19;;;;;;;4.57;4.20;;;7.90;99.90;;;;;;5052533;28;20209;-84
2022/04/05 11:09:53;;;;;;;4.53;4.15;;;8.00;99.90;;;;;;5061542;28;20268;-86
2022/04/05 11:12:26;;;;;;;5.15;4.57;;;8.10;99.80;;;;;;5069684;28;20694;-86
2022/04/05 11:14:56;;;;;;;5.10;4.53;;;8.10;99.90;;;;;;5070371;28;20200;-87
2022/04/05 11:17:25;;;;;;;4.90;4.45;;;8.20;99.90;;;;;;5070269;28;20209;-87
2022/04/05 11:19:55;;;;;;;5.80;4.95;;;8.10;99.90;;;;;;5069848;28;20201;-87
2022/04/05 11:22:33;;;;;;;4.72;4.15;;;8.30;99.40;;;;;;5069862;28;20209;-86
2022/04/05 11:25:04;;;;;;;4.28;3.88;;;8.30;98.90;;;;;;5069395;28;20209;-87
2022/04/05 11:27:33;;;;;;;4.97;4.10;;;8.30;99.30;;;;;;5070257;28;20203;-87
2022/04/05 11:30:40;;;;;;;4.70;4.20;;;8.40;99.50;;;;;;5069145;28;20224;-88
2022/04/05 11:33:34;;;;;;;4.57;4.18;;;8.50;99.40;;;;;;5061585;28;20234;-87
2022/04/05 11:36:04;;;;;;;4.88;4.47;;;8.50;99.20;;;;;;5068963;28;20488;-84
2022/04/05 11:38:33;;;;;;;4.78;4.45;;;8.40;99.90;;;;;;5069121;28;20760;-84
2022/04/05 11:41:03;;;;;;;5.60;4.35;;;8.50;99.90;;;;;;5066974;28;20205;-84
2022/04/05 11:43:35;;;;;;;5.43;4.30;;;8.60;97.90;;;;;;5064589;28;20195;-86
2022/04/05 11:46:06;;;;;;;3.95;3.60;;;8.70;98.80;;;;;;5064329;28;20214;-86
2022/04/05 11:48:35;;;;;;;4.85;4.00;;;8.70;98.30;;;;;;5068114;28;20202;-88
2022/04/05 11:51:09;;;;;;;4.75;4.03;;;8.70;97.90;;;;;;5068823;28;20660;-87
2022/04/05 11:54:16;;;;;;;4.93;4.22;;;8.90;98.50;;;;;;5059485;28;20204;-88
2022/04/05 11:56:49;;;;;;;4.05;3.65;;;8.80;97.70;;;;;;5062680;28;20203;-89
2022/04/05 11:59:28;;;;;;;4.03;3.70;;;8.90;99.90;;;;;;5067907;28;20206;-89
2022/04/05 12:01:56;;;;;;;4.90;4.45;;;9.00;98.00;;;;;;5069060;28;20309;-87
2022/04/05 12:04:25;;;;;;;3.60;3.17;;;9.10;97.30;;;;;;5062962;28;20213;-87
2022/04/05 12:07:03;;;;;;;3.80;3.50;;;9.10;96.90;;;;;;5059102;28;20637;-88
2022/04/05 12:09:32;;;;;;;4.05;3.65;;;9.30;97.30;;;;;;5066811;28;20301;-87
2022/04/05 12:12:04;;;;;;;4.57;3.90;;;9.40;97.60;;;;;;5059864;28;20199;-88
2022/04/05 12:14:35;;;;;;;4.40;3.93;;;9.40;98.00;;;;;;5066265;28;20614;-87
2022/04/05 12:17:06;;;;;;;7.00;4.90;;;9.50;96.90;;;;;;5058426;28;20619;-88
2022/04/05 12:19:35;;;;;;;7.30;5.27;;;9.40;99.90;;;;;;5068774;28;20674;-87
2022/04/05 12:22:05;;;;;;;6.10;5.50;;;9.50;96.70;;;;;;5062121;28;21249;-88
2022/04/05 12:24:33;;;;;;;6.27;5.67;;;9.60;96.50;;;;;;5069572;28;20727;-87
2022/04/05 12:27:02;;;;;;;5.43;4.93;;;9.50;96.70;;;;;;5056494;28;20717;-87
2022/04/05 12:29:31;;;;;;;4.80;4.40;;;9.50;96.80;;;;;;5064912;28;20226;-87
2022/04/05 12:32:07;;;;;;;5.97;5.33;;;9.50;96.40;;;;;;5064172;28;21191;-87
2022/04/05 12:34:34;;;;;;;5.13;4.67;;;9.50;96.60;;;;;;5060068;28;20641;-88
2022/04/05 12:37:03;;;;;;;4.87;4.40;;;9.10;97.00;;;;;;5069465;28;20608;-87
2022/04/05 12:39:33;;;;;;;7.00;5.85;;;9.20;95.60;;;;;;5063470;28;20625;-88
2022/04/05 12:42:02;;;;;;;5.57;5.07;;;9.30;96.50;;;;;;5067912;28;20207;-87
2022/04/05 12:44:31;;;;;;;6.00;5.40;;;9.20;97.10;;;;;;5061615;28;20632;-88
2022/04/05 12:47:05;;;;;;;6.30;5.00;;;9.20;96.10;;;;;;5067913;28;20984;-87
2022/04/05 12:49:35;;;;;;;5.23;4.73;;;9.20;95.90;;;;;;5071771;28;20226;-88
2022/04/05 12:52:11;;;;;;;5.47;4.97;;;9.20;95.80;;;;;;5069647;28;20633;-87
2022/04/05 12:54:46;;;;;;;5.27;4.77;;;9.20;96.00;;;;;;5071136;28;20620;-84
2022/04/05 12:57:18;;;;;;;5.87;4.70;;;9.20;96.40;;;;;;5067729;28;20719;-85
2022/04/05 12:59:46;;;;;;;6.07;4.80;;;9.30;95.90;;;;;;5070602;28;20620;-85
2022/04/05 13:02:21;;;;;;;5.67;4.93;;;9.30;95.90;;;;;;5070723;28;20731;-86
2022/04/05 13:04:50;;;;;;;7.50;5.33;;;9.30;95.50;;;;;;5064436;28;21393;-85
2022/04/05 13:07:17;;;;;;;5.83;5.27;;;9.30;95.30;;;;;;5069954;28;21167;-85